createdAt,value
2018-01-24T00:00:52.091Z,15.67
2018-01-24T00:03:19.614Z,16.07
2018-01-24T00:05:47.130Z,15.73
2018-01-24T00:08:14.759Z,14.57
2018-01-24T00:10:42.246Z,13.70
2018-01-24T00:13:09.810Z,13.43
2018-01-24T00:15:37.323Z,13.77
2018-01-24T00:18:04.930Z,14.33
2018-01-24T00:20:32.625Z,14.17
2018-01-24T00:23:00.199Z,13.37
2018-01-24T00:25:27.651Z,13.30
2018-01-24T00:27:55.150Z,13.30
2018-01-24T00:30:22.795Z,13.97
2018-01-24T00:32:50.292Z,14.33
2018-01-24T00:35:17.758Z,14.00
2018-01-24T00:37:45.226Z,12.73
2018-01-24T00:40:12.704Z,13.80
2018-01-24T00:42:40.227Z,14.33
2018-01-24T00:45:07.714Z,12.90
2018-01-24T00:47:35.176Z,12.23
2018-01-24T00:50:02.679Z,11.80
2018-01-24T00:52:30.192Z,13.73
2018-01-24T00:54:57.671Z,12.00
2018-01-24T00:57:25.158Z,12.97
2018-01-24T00:59:52.642Z,13.37
2018-01-24T01:02:20.110Z,12.97
2018-01-24T01:04:47.620Z,13.53
2018-01-24T01:07:15.094Z,12.40
2018-01-24T01:09:42.733Z,11.77
2018-01-24T01:12:10.218Z,12.40
2018-01-24T01:14:37.832Z,11.57
2018-01-24T01:17:05.320Z,11.50
2018-01-24T01:19:32.783Z,10.37
2018-01-24T01:22:00.239Z,10.80
2018-01-24T01:24:27.842Z,11.37
2018-01-24T01:26:55.296Z,11.57
2018-01-24T01:29:22.738Z,11.87
2018-01-24T01:31:50.246Z,10.80
2018-01-24T01:34:17.738Z,12.17
2018-01-24T01:36:45.389Z,11.20
2018-01-24T01:39:12.858Z,11.10
2018-01-24T01:41:40.331Z,10.00
2018-01-24T01:44:07.903Z,11.17
2018-01-24T01:46:35.392Z,10.17
2018-01-24T01:49:02.863Z,10.93
2018-01-24T01:51:30.410Z,9.87
2018-01-24T01:53:58.210Z,10.03
2018-01-24T01:56:25.668Z,9.70
2018-01-24T01:58:53.123Z,10.37
2018-01-24T02:01:20.586Z,10.20
2018-01-24T02:03:48.096Z,11.80
2018-01-24T02:06:15.566Z,10.03
2018-01-24T02:08:43.019Z,10.70
2018-01-24T02:11:10.601Z,10.60
2018-01-24T02:13:38.078Z,11.23
2018-01-24T02:16:05.533Z,10.77
2018-01-24T02:18:38.904Z,10.03
2018-01-24T02:21:06.383Z,9.73
2018-01-24T02:23:33.922Z,9.80
2018-01-24T02:26:01.404Z,9.73
2018-01-24T02:28:29.091Z,9.37
2018-01-24T02:30:56.567Z,8.87
2018-01-24T02:33:24.231Z,8.70
2018-01-24T02:35:51.683Z,9.47
2018-01-24T02:38:30.127Z,9.70
2018-01-24T02:40:57.637Z,9.20
2018-01-24T02:43:25.074Z,8.67
2018-01-24T02:45:52.549Z,9.80
2018-01-24T02:48:20.029Z,8.70
2018-01-24T02:50:47.494Z,9.07
2018-01-24T02:53:15.062Z,8.77
2018-01-24T02:55:42.528Z,8.23
2018-01-24T02:58:10.002Z,9.20
2018-01-24T03:00:37.588Z,10.33
2018-01-24T03:03:05.130Z,10.53
2018-01-24T03:05:32.598Z,11.50
2018-01-24T03:08:00.050Z,13.90
2018-01-24T03:10:27.517Z,14.03
2018-01-24T03:12:54.988Z,14.30
2018-01-24T03:15:22.471Z,15.80
2018-01-24T03:17:49.947Z,15.20
2018-01-24T03:20:17.557Z,16.90
2018-01-24T03:22:45.043Z,17.53
2018-01-24T03:25:12.605Z,17.00
2018-01-24T03:27:40.064Z,17.47
2018-01-24T03:30:07.519Z,18.40
2018-01-24T03:32:34.974Z,19.67
2018-01-24T03:35:02.426Z,20.20
2018-01-24T03:37:29.901Z,20.60
2018-01-24T03:39:57.388Z,20.70
2018-01-24T03:42:25.032Z,21.10
2018-01-24T03:44:52.506Z,21.57
2018-01-24T03:47:20.004Z,22.30
2018-01-24T03:49:47.447Z,20.80
2018-01-24T03:52:15.069Z,20.77
2018-01-24T03:54:42.767Z,20.23
2018-01-24T03:57:10.218Z,19.90
2018-01-24T03:59:37.920Z,15.87
2018-01-24T04:02:05.379Z,16.20
2018-01-24T04:04:32.859Z,17.70
2018-01-24T04:07:00.314Z,16.17
2018-01-24T04:09:27.818Z,16.37
2018-01-24T04:11:55.359Z,18.30
2018-01-24T04:14:22.818Z,19.10
2018-01-24T04:16:50.289Z,18.40
2018-01-24T04:19:17.765Z,17.43
2018-01-24T04:21:45.257Z,17.40
2018-01-24T04:24:12.701Z,15.47
2018-01-24T04:26:40.187Z,13.33
2018-01-24T04:29:07.655Z,13.43
2018-01-24T04:31:35.113Z,13.33
2018-01-24T04:34:02.596Z,13.90
2018-01-24T04:36:30.068Z,21.17
2018-01-24T04:38:57.526Z,20.40
2018-01-24T04:41:25.011Z,22.17
2018-01-24T04:43:52.480Z,23.37
2018-01-24T04:46:19.953Z,19.93
2018-01-24T04:48:47.446Z,22.47
2018-01-24T04:51:15.150Z,24.53
2018-01-24T04:53:42.651Z,22.60
2018-01-24T04:56:10.115Z,21.13
2018-01-24T04:58:37.675Z,17.23
2018-01-24T05:01:05.142Z,15.97
2018-01-24T05:03:32.589Z,11.53
2018-01-24T05:06:00.914Z,11.00
2018-01-24T05:08:28.626Z,10.77
2018-01-24T05:10:56.081Z,9.50
2018-01-24T05:13:23.579Z,9.93
2018-01-24T05:15:51.062Z,9.23
2018-01-24T05:18:18.526Z,8.80
2018-01-24T05:20:45.975Z,7.40
2018-01-24T05:23:13.442Z,7.10
2018-01-24T05:25:40.899Z,7.53
2018-01-24T05:28:08.379Z,13.33
2018-01-24T05:30:36.362Z,14.37
2018-01-24T05:33:03.853Z,16.57
2018-01-24T05:35:32.174Z,17.00
2018-01-24T05:37:59.706Z,14.90
2018-01-24T05:40:27.167Z,15.97
2018-01-24T05:42:54.630Z,15.10
2018-01-24T05:45:22.109Z,12.80
2018-01-24T05:47:49.572Z,13.93
2018-01-24T05:50:17.046Z,11.30
2018-01-24T05:52:44.516Z,10.77
2018-01-24T05:55:11.961Z,10.80
2018-01-24T05:57:39.438Z,12.43
2018-01-24T06:00:06.933Z,11.30
2018-01-24T06:02:35.727Z,12.37
2018-01-24T06:05:03.184Z,12.03
2018-01-24T06:07:30.663Z,12.43
2018-01-24T06:09:58.146Z,13.40
2018-01-24T06:12:25.750Z,13.33
2018-01-24T06:14:53.222Z,13.90
2018-01-24T06:17:20.749Z,17.97
2018-01-24T06:19:48.215Z,19.50
2018-01-24T06:22:15.787Z,20.30
2018-01-24T06:24:43.437Z,18.87
2018-01-24T06:27:10.878Z,19.67
2018-01-24T06:29:38.711Z,17.27
2018-01-24T06:32:06.204Z,19.00
2018-01-24T06:34:33.728Z,18.27
2018-01-24T06:37:01.186Z,18.70
2018-01-24T06:39:28.675Z,18.10
2018-01-24T06:41:56.153Z,20.03
2018-01-24T06:44:23.603Z,19.30
2018-01-24T06:46:51.089Z,19.37
2018-01-24T06:49:18.577Z,19.17
2018-01-24T06:51:46.033Z,21.30
2018-01-24T06:54:13.535Z,21.20
2018-01-24T06:56:40.995Z,31.43
2018-01-24T06:59:08.524Z,25.63
2018-01-24T07:01:36.029Z,34.70
2018-01-24T07:04:03.800Z,42.10
2018-01-24T07:06:31.427Z,45.37
2018-01-24T07:08:58.903Z,38.10
2018-01-24T07:11:26.360Z,50.77
2018-01-24T07:14:05.574Z,51.57
2018-01-24T07:16:33.063Z,60.50
2018-01-24T07:19:00.519Z,43.33
2018-01-24T07:21:28.054Z,26.63
2018-01-24T07:23:55.511Z,21.87
2018-01-24T07:26:23.010Z,22.00
2018-01-24T07:28:50.489Z,20.20
2018-01-24T07:31:17.956Z,18.50
2018-01-24T07:33:45.424Z,20.77
2018-01-24T07:36:12.899Z,19.37
2018-01-24T07:38:40.391Z,18.30
2018-01-24T07:41:07.924Z,19.73
2018-01-24T07:43:35.420Z,18.67
2018-01-24T07:46:02.886Z,18.00
2018-01-24T07:48:30.348Z,19.40
2018-01-24T07:50:57.861Z,19.10
2018-01-24T07:53:25.336Z,19.77
2018-01-24T07:55:52.795Z,19.63
2018-01-24T07:58:20.253Z,18.37
2018-01-24T08:00:47.824Z,18.10
2018-01-24T08:03:15.399Z,19.47
2018-01-24T08:05:42.862Z,18.77
2018-01-24T08:08:10.322Z,19.30
2018-01-24T08:10:37.794Z,19.00
2018-01-24T08:13:05.260Z,20.37
2018-01-24T08:15:32.736Z,19.57
2018-01-24T08:18:00.198Z,19.67
2018-01-24T08:20:27.754Z,18.20
2018-01-24T08:22:55.217Z,19.03
2018-01-24T08:25:22.688Z,19.10
2018-01-24T08:27:50.164Z,17.77
2018-01-24T08:30:17.639Z,17.97
2018-01-24T08:32:45.099Z,18.07
2018-01-24T08:35:12.546Z,19.03
2018-01-24T08:37:40.008Z,19.17
2018-01-24T08:40:07.491Z,18.70
2018-01-24T08:42:34.943Z,19.70
2018-01-24T08:45:02.411Z,20.23
2018-01-24T08:47:29.945Z,21.30
2018-01-24T08:49:57.400Z,19.63
2018-01-24T08:52:24.882Z,20.30
2018-01-24T08:54:52.362Z,21.00
2018-01-24T08:57:19.830Z,18.67
2018-01-24T08:59:47.279Z,19.60
2018-01-24T09:02:17.358Z,20.77
2018-01-24T09:05:02.288Z,23.03
2018-01-24T09:07:47.161Z,21.77
2018-01-24T09:10:32.180Z,26.73
2018-01-24T09:13:17.161Z,28.73
2018-01-24T09:16:02.038Z,32.70
2018-01-24T09:18:46.835Z,34.67
2018-01-24T09:21:31.716Z,37.17
2018-01-24T09:24:05.371Z,40.80
2018-01-24T09:26:33.062Z,40.50
2018-01-24T09:29:00.573Z,41.93
2018-01-24T09:31:28.086Z,44.00
2018-01-24T09:33:55.560Z,45.20
2018-01-24T09:36:23.083Z,46.30
2018-01-24T09:38:50.603Z,46.77
2018-01-24T09:41:18.076Z,47.50
2018-01-24T09:43:45.620Z,48.53
2018-01-24T09:46:13.213Z,49.07
2018-01-24T09:48:43.116Z,46.47
2018-01-24T09:51:10.605Z,46.47
2018-01-24T09:53:38.092Z,49.13
2018-01-24T09:56:05.570Z,50.30
2018-01-24T09:58:33.397Z,52.03
2018-01-24T10:01:00.890Z,49.03
2018-01-24T10:03:28.407Z,48.63
2018-01-24T10:05:55.878Z,51.00
2018-01-24T10:08:23.341Z,53.23
2018-01-24T10:10:50.804Z,53.73
2018-01-24T10:13:18.292Z,54.67
2018-01-24T10:15:45.814Z,53.07
2018-01-24T10:18:13.341Z,53.27
2018-01-24T10:20:40.822Z,55.13
2018-01-24T10:23:08.323Z,49.37
2018-01-24T10:25:35.791Z,50.13
2018-01-24T10:28:03.327Z,48.70
2018-01-24T10:30:30.798Z,52.00
2018-01-24T10:32:58.293Z,48.70
2018-01-24T10:35:25.763Z,48.93
2018-01-24T10:37:53.295Z,51.37
2018-01-24T10:40:20.782Z,51.50
2018-01-24T10:42:48.271Z,49.30
2018-01-24T10:45:16.030Z,48.93
2018-01-24T10:47:43.529Z,48.10
2018-01-24T10:50:11.009Z,47.20
2018-01-24T10:52:38.529Z,49.70
2018-01-24T10:55:05.995Z,47.93
2018-01-24T10:57:33.484Z,45.27
2018-01-24T11:00:01.007Z,46.47
2018-01-24T11:02:28.505Z,47.90
2018-01-24T11:04:56.001Z,44.57
2018-01-24T11:07:24.342Z,47.90
2018-01-24T11:09:51.835Z,46.80
2018-01-24T11:12:19.311Z,45.73
2018-01-24T11:14:46.781Z,52.37
2018-01-24T11:17:14.275Z,52.40
2018-01-24T11:19:41.804Z,48.70
2018-01-24T11:22:09.264Z,50.80
2018-01-24T11:24:37.089Z,48.50
2018-01-24T11:27:04.577Z,51.40
2018-01-24T11:29:32.075Z,50.23
2018-01-24T11:31:59.689Z,45.40
2018-01-24T11:34:27.154Z,47.20
2018-01-24T11:36:54.635Z,48.57
2018-01-24T11:39:22.148Z,47.50
2018-01-24T11:41:49.646Z,48.30
2018-01-24T11:44:17.215Z,45.83
2018-01-24T11:46:44.724Z,45.50
2018-01-24T11:49:12.179Z,45.37
2018-01-24T11:51:41.054Z,45.20
2018-01-24T11:54:08.850Z,45.97
2018-01-24T11:56:36.453Z,45.57
2018-01-24T11:59:04.122Z,47.13
2018-01-24T12:01:31.656Z,45.10
2018-01-24T12:03:59.252Z,47.90
2018-01-24T12:06:27.777Z,48.20
2018-01-24T12:08:55.394Z,45.53
2018-01-24T12:11:23.015Z,46.83
2018-01-24T12:13:50.544Z,47.37
2018-01-24T12:16:18.981Z,47.10
2018-01-24T12:18:46.654Z,47.37
2018-01-24T12:21:14.370Z,48.70
2018-01-24T12:23:41.913Z,46.07
2018-01-24T12:26:09.806Z,44.80
2018-01-24T12:28:37.303Z,46.03
2018-01-24T12:31:04.770Z,45.37
2018-01-24T12:33:32.263Z,44.63
2018-01-24T12:35:59.750Z,44.10
2018-01-24T12:38:27.497Z,43.60
2018-01-24T12:40:55.003Z,41.50
2018-01-24T12:43:22.495Z,41.63
2018-01-24T12:45:49.966Z,42.60
2018-01-24T12:48:17.441Z,43.57
2018-01-24T12:50:44.894Z,43.37
2018-01-24T12:53:12.377Z,41.83
2018-01-24T12:55:39.837Z,40.90
2018-01-24T12:58:07.292Z,40.20
2018-01-24T13:00:34.759Z,39.23
2018-01-24T13:03:02.208Z,41.83
2018-01-24T13:05:29.690Z,40.70
2018-01-24T13:07:57.188Z,41.90
2018-01-24T13:10:24.607Z,42.33
2018-01-24T13:12:52.086Z,42.77
2018-01-24T13:15:19.554Z,43.27
2018-01-24T13:17:47.024Z,41.70
2018-01-24T13:20:15.503Z,38.87
2018-01-24T13:22:43.021Z,38.83
2018-01-24T13:25:10.519Z,40.50
2018-01-24T13:27:37.983Z,37.13
2018-01-24T13:30:05.465Z,39.77
2018-01-24T13:32:33.292Z,38.97
2018-01-24T13:35:00.783Z,38.60
2018-01-24T13:37:28.254Z,38.93
2018-01-24T13:39:55.738Z,40.37
2018-01-24T13:42:23.480Z,41.97
2018-01-24T13:44:51.076Z,38.13
2018-01-24T13:47:18.703Z,41.10
2018-01-24T13:49:46.275Z,41.60
2018-01-24T13:52:13.983Z,41.00
2018-01-24T13:54:41.693Z,41.03
2018-01-24T13:57:09.167Z,40.47
2018-01-24T13:59:36.696Z,42.03
2018-01-24T14:02:04.231Z,43.10
2018-01-24T14:04:31.791Z,41.00
2018-01-24T14:06:59.255Z,40.93
2018-01-24T14:09:26.735Z,42.13
2018-01-24T14:11:54.268Z,41.90
2018-01-24T14:14:21.738Z,40.37
2018-01-24T14:16:49.205Z,41.27
2018-01-24T14:19:16.666Z,39.77
2018-01-24T14:21:44.126Z,40.70
2018-01-24T14:24:11.649Z,40.10
2018-01-24T14:26:39.204Z,39.40
2018-01-24T14:29:06.680Z,38.60
2018-01-24T14:31:34.158Z,36.27
2018-01-24T14:34:01.717Z,37.53
2018-01-24T14:36:29.217Z,38.17
2018-01-24T14:38:56.705Z,36.43
2018-01-24T14:41:24.188Z,36.10
2018-01-24T14:43:51.730Z,35.60
2018-01-24T14:46:19.200Z,38.30
2018-01-24T14:48:46.719Z,35.03
2018-01-24T14:51:16.578Z,34.30
2018-01-24T14:53:44.095Z,33.87
2018-01-24T14:58:48.929Z,33.00
2018-01-24T15:01:19.438Z,34.77
2018-01-24T15:03:50.185Z,34.30
2018-01-24T15:06:20.759Z,33.47
2018-01-24T15:09:04.390Z,34.30
2018-01-24T15:14:55.249Z,30.83
2018-01-24T15:17:24.996Z,31.50
2018-01-24T15:19:52.587Z,32.40
2018-01-24T15:22:22.426Z,31.73
2018-01-24T15:24:50.415Z,32.30
2018-01-24T15:27:21.208Z,29.37
2018-01-24T15:29:49.116Z,30.23
2018-01-24T15:32:16.735Z,33.17
2018-01-24T15:34:44.198Z,32.40
2018-01-24T15:37:11.690Z,31.90
2018-01-24T15:39:39.169Z,34.47
2018-01-24T15:42:06.650Z,33.20
2018-01-24T15:44:34.360Z,35.67
2018-01-24T15:47:01.879Z,33.03
2018-01-24T15:49:35.436Z,34.30
2018-01-24T15:52:04.859Z,38.00
2018-01-24T15:54:32.854Z,39.47
2018-01-24T15:57:00.447Z,41.50
2018-01-24T15:59:30.082Z,41.13
2018-01-24T16:01:57.579Z,39.67
2018-01-24T16:04:27.236Z,42.33
2018-01-24T16:06:54.825Z,41.47
2018-01-24T16:09:22.771Z,44.03
2018-01-24T16:11:50.541Z,42.33
2018-01-24T16:14:18.708Z,44.27
2018-01-24T16:16:46.979Z,43.63
2018-01-24T16:19:14.467Z,43.27
2018-01-24T16:21:43.603Z,45.30
2018-01-24T16:24:12.967Z,45.90
2018-01-24T16:26:40.542Z,50.33
2018-01-24T16:29:08.039Z,46.67
2018-01-24T16:31:35.589Z,46.13
2018-01-24T16:34:03.072Z,48.23
2018-01-24T16:36:30.564Z,45.97
2018-01-24T16:38:58.905Z,47.97
2018-01-24T16:41:29.642Z,46.20
2018-01-24T16:43:57.347Z,46.20
2018-01-24T16:46:26.981Z,47.67
2018-01-24T16:48:54.619Z,46.17
2018-01-24T16:51:22.158Z,45.83
2018-01-24T16:53:49.677Z,45.50
2018-01-24T16:56:17.237Z,46.33
2018-01-24T16:58:44.865Z,45.50
2018-01-24T17:01:12.372Z,45.87
2018-01-24T17:03:39.847Z,45.77
2018-01-24T17:06:08.361Z,44.80
2018-01-24T17:08:35.912Z,44.50
2018-01-24T17:11:03.356Z,46.37
2018-01-24T17:13:30.825Z,53.27
2018-01-24T17:15:58.355Z,51.93
2018-01-24T17:18:26.086Z,54.20
2018-01-24T17:20:53.556Z,56.00
2018-01-24T17:23:21.033Z,53.87
2018-01-24T17:25:48.545Z,55.93
2018-01-24T17:28:17.102Z,55.33
2018-01-24T17:30:45.271Z,57.03
2018-01-24T17:33:12.774Z,59.33
2018-01-24T17:35:41.919Z,55.40
2018-01-24T17:38:09.407Z,58.93
2018-01-24T17:40:36.960Z,58.83
2018-01-24T17:43:05.369Z,59.23
2018-01-24T17:45:33.633Z,57.17
2018-01-24T17:48:01.355Z,59.57
2018-01-24T17:50:28.940Z,59.47
2018-01-24T17:52:57.285Z,55.70
2018-01-24T17:55:25.261Z,57.33
2018-01-24T17:57:52.733Z,57.40
2018-01-24T18:00:20.292Z,59.80
2018-01-24T18:02:47.818Z,57.37
2018-01-24T18:05:15.393Z,60.27
2018-01-24T18:07:42.877Z,53.90
2018-01-24T18:10:10.416Z,58.07
2018-01-24T18:12:37.896Z,56.23
2018-01-24T18:15:05.459Z,52.87
2018-01-24T18:17:32.997Z,57.30
2018-01-24T18:20:00.575Z,58.47
2018-01-24T18:22:28.410Z,56.67
2018-01-24T18:24:55.983Z,59.50
2018-01-24T18:27:23.485Z,56.57
2018-01-24T18:29:51.028Z,55.40
2018-01-24T18:32:21.481Z,53.77
2018-01-24T18:34:48.960Z,54.20
2018-01-24T18:37:16.475Z,54.23
2018-01-24T18:39:44.079Z,55.50
2018-01-24T18:42:11.587Z,52.47
2018-01-24T18:44:39.056Z,54.67
2018-01-24T18:47:06.535Z,55.10
2018-01-24T18:49:34.028Z,51.87
2018-01-24T18:52:01.505Z,49.83
2018-01-24T18:54:29.781Z,50.23
2018-01-24T18:56:57.294Z,48.80
2018-01-24T18:59:24.752Z,49.07
2018-01-24T19:01:52.457Z,46.17
2018-01-24T19:04:20.032Z,46.57
2018-01-24T19:06:47.559Z,44.20
2018-01-24T19:09:16.315Z,45.53
2018-01-24T19:11:43.924Z,48.00
2018-01-24T19:14:11.478Z,43.87
2018-01-24T19:16:38.892Z,43.30
2018-01-24T19:19:06.366Z,43.30
2018-01-24T19:21:33.846Z,46.40
2018-01-24T19:24:01.322Z,45.20
2018-01-24T19:26:28.868Z,42.83
2018-01-24T19:28:56.343Z,41.30
2018-01-24T19:31:23.860Z,42.97
2018-01-24T19:33:51.335Z,39.37
2018-01-24T19:36:18.807Z,40.10
2018-01-24T19:38:46.325Z,40.17
2018-01-24T19:41:14.954Z,40.77
2018-01-24T19:43:42.540Z,39.07
2018-01-24T19:46:10.039Z,40.67
2018-01-24T19:48:37.530Z,37.10
2018-01-24T19:51:05.133Z,37.57
2018-01-24T19:53:32.626Z,39.73
2018-01-24T19:56:00.159Z,40.20
2018-01-24T19:58:27.696Z,39.67
2018-01-24T20:00:55.171Z,40.03
2018-01-24T20:03:22.634Z,38.97
2018-01-24T20:05:50.107Z,39.47
2018-01-24T20:08:17.846Z,37.57
2018-01-24T20:10:45.342Z,37.40
2018-01-24T20:13:12.826Z,35.33
2018-01-24T20:15:40.303Z,34.87
2018-01-24T20:18:07.824Z,33.20
2018-01-24T20:20:35.319Z,32.93
2018-01-24T20:23:02.852Z,33.77
2018-01-24T20:25:30.344Z,31.17
2018-01-24T20:27:57.828Z,31.87
2018-01-24T20:30:26.582Z,31.30
2018-01-24T20:32:54.063Z,32.20
2018-01-24T20:35:21.549Z,31.00
2018-01-24T20:37:49.040Z,30.10
2018-01-24T20:40:17.384Z,31.20
2018-01-24T20:42:44.849Z,32.17
2018-01-24T20:45:13.388Z,30.70
2018-01-24T20:47:40.919Z,30.67
2018-01-24T20:50:08.389Z,30.50
2018-01-24T20:52:35.916Z,30.83
2018-01-24T20:55:03.435Z,26.53
2018-01-24T20:57:30.898Z,27.87
2018-01-24T20:59:58.388Z,27.07
2018-01-24T21:02:25.933Z,28.00
2018-01-24T21:04:54.039Z,28.30
2018-01-24T21:07:23.386Z,24.90
2018-01-24T21:09:51.993Z,24.00
2018-01-24T21:12:19.545Z,26.00
2018-01-24T21:14:49.280Z,24.63
2018-01-24T21:17:17.090Z,24.47
2018-01-24T21:19:47.210Z,24.83
2018-01-24T21:22:16.876Z,23.90
2018-01-24T21:24:47.432Z,25.07
2018-01-24T21:27:19.383Z,23.77
2018-01-24T21:30:00.790Z,24.27
2018-01-24T21:32:41.392Z,23.20
2018-01-24T21:38:21.353Z,23.87
2018-01-24T21:40:54.422Z,25.10
2018-01-24T21:43:22.711Z,24.47
2018-01-24T21:45:57.251Z,24.20
2018-01-24T21:48:27.560Z,24.73
2018-01-24T21:53:58.971Z,24.60
2018-01-24T21:56:26.668Z,22.97
2018-01-24T21:58:54.297Z,24.83
2018-01-24T22:01:21.821Z,26.60
2018-01-24T22:03:49.366Z,25.30
2018-01-24T22:06:16.914Z,24.30
2018-01-24T22:08:44.492Z,25.50
2018-01-24T22:11:12.031Z,25.13
2018-01-24T22:13:39.522Z,26.00
2018-01-24T22:16:07.716Z,27.87
2018-01-24T22:18:35.507Z,28.87
2018-01-24T22:21:03.038Z,28.03
2018-01-24T22:23:31.180Z,28.27
2018-01-24T22:25:58.985Z,27.90
2018-01-24T22:28:26.659Z,27.70
2018-01-24T22:30:54.883Z,28.80
2018-01-24T22:33:22.495Z,27.00
2018-01-24T22:35:50.300Z,28.60
2018-01-24T22:38:17.792Z,28.10
2018-01-24T22:40:46.471Z,29.97
2018-01-24T22:43:14.199Z,28.90
2018-01-24T22:45:41.791Z,31.00
2018-01-24T22:48:09.324Z,30.60
2018-01-24T22:50:39.604Z,28.57
2018-01-24T22:53:07.193Z,29.57
2018-01-24T22:55:34.704Z,30.67
2018-01-24T22:58:02.484Z,30.03
2018-01-24T23:00:30.011Z,31.27
2018-01-24T23:02:57.571Z,32.00
2018-01-24T23:05:25.080Z,30.20
2018-01-24T23:07:52.585Z,30.93
2018-01-24T23:10:20.151Z,29.93
2018-01-24T23:12:47.636Z,28.90
2018-01-24T23:15:16.013Z,30.33
2018-01-24T23:17:43.617Z,30.47
2018-01-24T23:20:11.103Z,29.50
2018-01-24T23:22:38.640Z,28.60
2018-01-24T23:25:06.121Z,29.70
2018-01-24T23:27:33.646Z,30.00
2018-01-24T23:30:01.140Z,29.50
2018-01-24T23:32:30.983Z,28.30
2018-01-24T23:34:58.478Z,31.50
2018-01-24T23:37:25.983Z,29.70
2018-01-24T23:39:53.488Z,30.90
2018-01-24T23:42:20.964Z,29.83
2018-01-24T23:44:48.440Z,30.97
2018-01-24T23:47:15.917Z,31.20
2018-01-24T23:49:43.507Z,29.77
2018-01-24T23:52:10.963Z,31.07
2018-01-24T23:54:38.452Z,28.47
2018-01-24T23:57:05.974Z,31.10
2018-01-24T23:59:33.443Z,31.10
